Terminal Aerodrome Forecast
Issued by NWS

Home | Current Version | Previous Version | Text Only | Print | Product List | Glossary On
Versions: 1 2 3 4 5 6 7 8 9 10 11 12
000
FTUS44 KEPZ 261700 RRA
TAFDMN
TAF
KDMN 261741Z 2618/2718 25012KT P6SM BKN060
     FM262000 27015G24KT P6SM FEW025 BKN200
     FM270000 28012KT P6SM FEW080 SCT120
     FM270600 36006KT P6SM FEW110=

USA.gov is the U.S. government's official web portal to all federal, state and local government web resources and services.